TimeCST,TemperatureF,Dew PointF,Humidity,Sea Level PressureIn,VisibilityMPH,Wind Direction,Wind SpeedMPH,Gust SpeedMPH,PrecipitationIn,Events,Conditions,WindDirDegrees,DateUTC
12:53 AM,55.9,48.9,77,30.12,10.0,ENE,4.6,-,N/A,,Overcast,70,2013-11-15 06:53:00
1:53 AM,55.9,48.9,77,30.09,10.0,ENE,6.9,-,N/A,,Mostly Cloudy,70,2013-11-15 07:53:00
2:53 AM,57.0,50.0,77,30.08,10.0,ENE,3.5,-,0.00,,Overcast,60,2013-11-15 08:53:00
3:53 AM,55.9,51.1,84,30.07,10.0,NE,3.5,-,0.00,,Mostly Cloudy,50,2013-11-15 09:53:00
4:53 AM,55.9,51.1,84,30.06,10.0,ENE,4.6,-,N/A,,Overcast,60,2013-11-15 10:53:00
5:53 AM,57.0,52.0,83,30.07,10.0,Calm,Calm,-,N/A,,Overcast,0,2013-11-15 11:53:00
6:36 AM,57.2,51.8,82,30.07,10.0,NNE,3.5,-,0.00,,Overcast,20,2013-11-15 12:36:00
6:53 AM,57.0,52.0,83,30.08,10.0,Calm,Calm,-,0.00,,Overcast,0,2013-11-15 12:53:00
7:39 AM,57.2,51.8,82,30.08,10.0,Calm,Calm,-,N/A,,Mostly Cloudy,0,2013-11-15 13:39:00
7:53 AM,59.0,53.1,81,30.08,10.0,Calm,Calm,-,N/A,,Mostly Cloudy,0,2013-11-15 13:53:00
8:53 AM,63.0,54.0,72,30.10,10.0,NE,5.8,-,N/A,,Overcast,40,2013-11-15 14:53:00
9:21 AM,64.4,55.4,73,30.10,10.0,North,4.6,-,N/A,,Overcast,10,2013-11-15 15:21:00
9:53 AM,64.0,55.0,73,30.11,10.0,Variable,3.5,-,N/A,,Overcast,0,2013-11-15 15:53:00
10:36 AM,66.2,57.2,73,30.09,10.0,Variable,5.8,-,N/A,,Overcast,0,2013-11-15 16:36:00
10:53 AM,68.0,57.0,68,30.09,10.0,NE,3.5,-,N/A,,Overcast,40,2013-11-15 16:53:00
11:53 AM,71.1,57.9,63,30.05,10.0,NE,5.8,-,N/A,,Scattered Clouds,40,2013-11-15 17:53:00
12:53 PM,71.1,59.0,66,30.01,10.0,Variable,5.8,-,N/A,,Partly Cloudy,0,2013-11-15 18:53:00
1:53 PM,73.9,61.0,64,29.99,10.0,East,5.8,-,N/A,,Clear,80,2013-11-15 19:53:00
2:53 PM,73.9,61.0,64,29.98,10.0,ENE,8.1,-,N/A,,Partly Cloudy,70,2013-11-15 20:53:00
3:53 PM,73.9,62.1,66,29.97,10.0,ENE,6.9,-,N/A,,Clear,60,2013-11-15 21:53:00
4:53 PM,69.1,60.1,73,29.98,10.0,NE,6.9,-,N/A,,Clear,40,2013-11-15 22:53:00
5:53 PM,66.0,60.1,81,29.99,10.0,NE,9.2,-,N/A,,Scattered Clouds,50,2013-11-15 23:53:00
6:26 PM,64.4,60.8,88,30.00,10.0,NE,5.8,-,N/A,,Mostly Cloudy,50,2013-11-16 00:26:00
6:38 PM,64.4,60.8,88,30.00,10.0,ENE,5.8,-,N/A,,Mostly Cloudy,70,2013-11-16 00:38:00
6:53 PM,64.9,61.0,87,30.01,10.0,ENE,8.1,-,N/A,,Overcast,70,2013-11-16 00:53:00
7:53 PM,64.9,62.1,90,30.03,10.0,East,8.1,-,N/A,,Overcast,80,2013-11-16 01:53:00
8:53 PM,64.0,62.1,93,30.03,3.0,East,9.2,-,N/A,,Overcast,90,2013-11-16 02:53:00
9:05 PM,64.4,62.6,94,30.03,3.0,East,9.2,-,N/A,,Overcast,80,2013-11-16 03:05:00
9:53 PM,64.0,62.1,93,30.03,3.0,East,6.9,-,N/A,,Overcast,90,2013-11-16 03:53:00
10:53 PM,64.0,61.0,90,30.03,3.0,ENE,5.8,-,N/A,,Overcast,70,2013-11-16 04:53:00
11:00 PM,64.4,60.8,88,30.03,10.0,East,4.6,-,N/A,,Overcast,80,2013-11-16 05:00:00
11:18 PM,64.4,60.8,88,30.03,10.0,East,5.8,-,N/A,,Overcast,80,2013-11-16 05:18:00
11:53 PM,63.0,61.0,93,30.03,8.0,East,5.8,-,N/A,,Overcast,100,2013-11-16 05:53:00